Somersville, Connecticut
Current Conditions -  °F | °C
As of 11:51 PM on Monday 22 Dec 2014 (Local Time) from KBDL Reporting Station
Drizzle Drizzle  
Wind Chill: 36°   Ceiling: 3200
Heat Index: 39°   Visibility: 7mi
Dew Point: 35°   Wind: 5mph
Humidity: 86%   Direction: 360°N
Pressure: 30.25"   Gusts: NA
Location:  41.98°N, 72.49°W
Report Text: KBDL 230451Z 36004KT 7SM -DZ OVC032 04/02 A3025 RMK AO2 DZB50 SLP244 PCPN VRY LGT P0000 T00390017 400610006
Loading
Personal Weather Stations






























Interactive Weather Map New forecast layout! Learn more

10-Day Weather Forecast

Advertisements
Track Severe Weather on mobile